Terminal Aerodrome Forecast
Issued by NWS Grand Forks, ND

Current Version | Previous Version | Text Only | Print | Product List | Glossary On
Versions: 1 2 3 4 5 6 7 8 9 10 11 12 13 14 15 16
000
FTUS43 KFGF 221314 AAB
TAFFAR
TAF AMD
KFAR 221314Z 2213/2312 17010KT 1/4SM FG VV002
      TEMPO 2213/2214 1SM BR BKN002
     FM221400 15006KT P6SM BKN050
     FM230000 13006KT P6SM SCT040
     FM230500 12006KT P6SM SCT250=

USA.gov is the U.S. government's official web portal to all federal, state and local government web resources and services.